sensor_id;sensor_type;location;lat;lon;timestamp;P1;durP1;ratioP1;P2;durP2;ratioP2
53881;SDS011;39794;55.782;37.452;2022-11-15T00:02:36;3.72;;;1.10;;
53881;SDS011;39794;55.782;37.452;2022-11-15T00:05:23;0.60;;;0.60;;
53881;SDS011;39794;55.782;37.452;2022-11-15T00:08:11;3.33;;;0.77;;
53881;SDS011;39794;55.782;37.452;2022-11-15T00:10:59;4.72;;;0.90;;
53881;SDS011;39794;55.782;37.452;2022-11-15T00:13:48;3.60;;;0.90;;
53881;SDS011;39794;55.782;37.452;2022-11-15T00:16:35;1.73;;;1.08;;
53881;SDS011;39794;55.782;37.452;2022-11-15T00:19:22;3.38;;;1.48;;
53881;SDS011;39794;55.782;37.452;2022-11-15T00:22:09;2.95;;;1.00;;
53881;SDS011;39794;55.782;37.452;2022-11-15T00:24:55;2.38;;;0.93;;
53881;SDS011;39794;55.782;37.452;2022-11-15T00:27:43;1.40;;;0.95;;
53881;SDS011;39794;55.782;37.452;2022-11-15T00:30:31;1.73;;;0.90;;
53881;SDS011;39794;55.782;37.452;2022-11-15T00:33:19;2.83;;;1.10;;
53881;SDS011;39794;55.782;37.452;2022-11-15T00:36:07;2.05;;;0.70;;
53881;SDS011;39794;55.782;37.452;2022-11-15T00:38:55;1.05;;;0.80;;
53881;SDS011;39794;55.782;37.452;2022-11-15T00:41:43;1.38;;;0.73;;
53881;SDS011;39794;55.782;37.452;2022-11-15T00:44:30;2.00;;;0.93;;
53881;SDS011;39794;55.782;37.452;2022-11-15T00:47:18;2.80;;;1.17;;
53881;SDS011;39794;55.782;37.452;2022-11-15T00:50:05;1.00;;;0.90;;
53881;SDS011;39794;55.782;37.452;2022-11-15T00:52:58;2.05;;;1.00;;
53881;SDS011;39794;55.782;37.452;2022-11-15T00:55:45;1.52;;;0.80;;
53881;SDS011;39794;55.782;37.452;2022-11-15T00:58:32;1.67;;;1.10;;
53881;SDS011;39794;55.782;37.452;2022-11-15T01:01:19;1.73;;;0.98;;
53881;SDS011;39794;55.782;37.452;2022-11-15T01:04:08;3.20;;;1.30;;
53881;SDS011;39794;55.782;37.452;2022-11-15T01:06:55;2.45;;;1.05;;
53881;SDS011;39794;55.782;37.452;2022-11-15T01:09:42;4.30;;;1.20;;
53881;SDS011;39794;55.782;37.452;2022-11-15T01:12:29;2.45;;;0.80;;
53881;SDS011;39794;55.782;37.452;2022-11-15T01:15:17;2.20;;;0.88;;
53881;SDS011;39794;55.782;37.452;2022-11-15T01:18:04;4.47;;;0.80;;
53881;SDS011;39794;55.782;37.452;2022-11-15T01:20:53;1.70;;;0.85;;
53881;SDS011;39794;55.782;37.452;2022-11-15T01:23:39;1.50;;;0.77;;
53881;SDS011;39794;55.782;37.452;2022-11-15T01:26:26;1.15;;;0.50;;
53881;SDS011;39794;55.782;37.452;2022-11-15T01:29:13;2.65;;;0.77;;
53881;SDS011;39794;55.782;37.452;2022-11-15T01:32:00;2.22;;;0.75;;
53881;SDS011;39794;55.782;37.452;2022-11-15T01:34:47;1.77;;;0.90;;
53881;SDS011;39794;55.782;37.452;2022-11-15T01:37:36;1.85;;;0.90;;
53881;SDS011;39794;55.782;37.452;2022-11-15T01:40:22;1.67;;;1.00;;
53881;SDS011;39794;55.782;37.452;2022-11-15T01:43:20;3.25;;;0.77;;
53881;SDS011;39794;55.782;37.452;2022-11-15T01:46:17;1.30;;;0.80;;
53881;SDS011;39794;55.782;37.452;2022-11-15T01:49:12;4.13;;;1.02;;
53881;SDS011;39794;55.782;37.452;2022-11-15T01:52:02;2.67;;;0.82;;
53881;SDS011;39794;55.782;37.452;2022-11-15T01:54:53;1.52;;;0.75;;
53881;SDS011;39794;55.782;37.452;2022-11-15T01:57:43;3.28;;;0.93;;
53881;SDS011;39794;55.782;37.452;2022-11-15T02:00:30;2.92;;;0.82;;
53881;SDS011;39794;55.782;37.452;2022-11-15T02:03:22;2.53;;;1.08;;
53881;SDS011;39794;55.782;37.452;2022-11-15T02:06:13;5.43;;;1.02;;
53881;SDS011;39794;55.782;37.452;2022-11-15T02:09:00;1.40;;;0.73;;
53881;SDS011;39794;55.782;37.452;2022-11-15T02:11:49;2.50;;;1.08;;
53881;SDS011;39794;55.782;37.452;2022-11-15T02:14:37;4.05;;;1.25;;
53881;SDS011;39794;55.782;37.452;2022-11-15T02:17:31;3.20;;;0.93;;
53881;SDS011;39794;55.782;37.452;2022-11-15T02:20:37;4.00;;;0.90;;
53881;SDS011;39794;55.782;37.452;2022-11-15T02:23:41;3.72;;;0.80;;
53881;SDS011;39794;55.782;37.452;2022-11-15T02:26:56;1.50;;;0.90;;
53881;SDS011;39794;55.782;37.452;2022-11-15T02:30:00;2.20;;;0.80;;
53881;SDS011;39794;55.782;37.452;2022-11-15T02:32:57;6.22;;;1.00;;
53881;SDS011;39794;55.782;37.452;2022-11-15T02:35:47;2.47;;;0.85;;
53881;SDS011;39794;55.782;37.452;2022-11-15T02:38:40;3.90;;;1.05;;
53881;SDS011;39794;55.782;37.452;2022-11-15T02:41:30;1.30;;;0.93;;
53881;SDS011;39794;55.782;37.452;2022-11-15T02:44:23;3.38;;;1.20;;
53881;SDS011;39794;55.782;37.452;2022-11-15T02:47:11;3.95;;;1.48;;
53881;SDS011;39794;55.782;37.452;2022-11-15T02:50:00;6.60;;;1.38;;
53881;SDS011;39794;55.782;37.452;2022-11-15T02:52:50;5.68;;;1.20;;
53881;SDS011;39794;55.782;37.452;2022-11-15T02:55:38;1.65;;;1.33;;
53881;SDS011;39794;55.782;37.452;2022-11-15T03:04:36;3.03;;;0.90;;
53881;SDS011;39794;55.782;37.452;2022-11-15T03:07:32;4.13;;;1.35;;
53881;SDS011;39794;55.782;37.452;2022-11-15T03:10:23;1.77;;;1.15;;
53881;SDS011;39794;55.782;37.452;2022-11-15T03:13:16;2.40;;;0.90;;
53881;SDS011;39794;55.782;37.452;2022-11-15T03:16:09;3.60;;;1.02;;
53881;SDS011;39794;55.782;37.452;2022-11-15T03:19:02;3.70;;;1.30;;
53881;SDS011;39794;55.782;37.452;2022-11-15T03:21:52;1.85;;;1.20;;
53881;SDS011;39794;55.782;37.452;2022-11-15T03:24:41;3.75;;;1.25;;
53881;SDS011;39794;55.782;37.452;2022-11-15T03:27:31;2.90;;;1.35;;
53881;SDS011;39794;55.782;37.452;2022-11-15T03:30:20;3.47;;;1.30;;
53881;SDS011;39794;55.782;37.452;2022-11-15T03:33:07;4.47;;;1.42;;
53881;SDS011;39794;55.782;37.452;2022-11-15T03:35:55;6.57;;;1.73;;
53881;SDS011;39794;55.782;37.452;2022-11-15T03:38:42;1.40;;;0.95;;
53881;SDS011;39794;55.782;37.452;2022-11-15T03:41:32;3.17;;;0.98;;
53881;SDS011;39794;55.782;37.452;2022-11-15T03:44:25;2.13;;;1.00;;
53881;SDS011;39794;55.782;37.452;2022-11-15T03:47:19;3.95;;;1.00;;
53881;SDS011;39794;55.782;37.452;2022-11-15T03:50:08;3.28;;;1.42;;
53881;SDS011;39794;55.782;37.452;2022-11-15T03:52:57;5.40;;;1.45;;
53881;SDS011;39794;55.782;37.452;2022-11-15T03:55:45;1.00;;;0.70;;
53881;SDS011;39794;55.782;37.452;2022-11-15T03:58:33;3.90;;;1.30;;
53881;SDS011;39794;55.782;37.452;2022-11-15T04:01:20;6.43;;;1.10;;
53881;SDS011;39794;55.782;37.452;2022-11-15T04:04:07;2.05;;;1.05;;
53881;SDS011;39794;55.782;37.452;2022-11-15T04:06:55;1.75;;;1.00;;
53881;SDS011;39794;55.782;37.452;2022-11-15T04:09:42;8.27;;;2.47;;
53881;SDS011;39794;55.782;37.452;2022-11-15T04:12:43;2.88;;;1.40;;
53881;SDS011;39794;55.782;37.452;2022-11-15T04:15:33;2.97;;;1.25;;
53881;SDS011;39794;55.782;37.452;2022-11-15T04:18:21;2.60;;;0.85;;
53881;SDS011;39794;55.782;37.452;2022-11-15T04:21:09;12.13;;;1.30;;
53881;SDS011;39794;55.782;37.452;2022-11-15T04:24:13;4.50;;;0.82;;
53881;SDS011;39794;55.782;37.452;2022-11-15T04:27:01;3.45;;;0.90;;
53881;SDS011;39794;55.782;37.452;2022-11-15T04:29:48;2.50;;;1.10;;
53881;SDS011;39794;55.782;37.452;2022-11-15T04:32:36;5.70;;;1.48;;
53881;SDS011;39794;55.782;37.452;2022-11-15T04:35:23;2.75;;;1.38;;
53881;SDS011;39794;55.782;37.452;2022-11-15T04:38:10;1.85;;;1.05;;
53881;SDS011;39794;55.782;37.452;2022-11-15T04:40:57;5.82;;;2.20;;
53881;SDS011;39794;55.782;37.452;2022-11-15T04:43:44;6.10;;;1.30;;
53881;SDS011;39794;55.782;37.452;2022-11-15T04:46:32;5.93;;;2.15;;
53881;SDS011;39794;55.782;37.452;2022-11-15T04:49:20;13.07;;;1.85;;
53881;SDS011;39794;55.782;37.452;2022-11-15T04:52:07;4.13;;;1.55;;
53881;SDS011;39794;55.782;37.452;2022-11-15T04:54:54;8.55;;;2.50;;
53881;SDS011;39794;55.782;37.452;2022-11-15T04:57:41;3.60;;;1.25;;
53881;SDS011;39794;55.782;37.452;2022-11-15T05:00:28;4.22;;;1.33;;
53881;SDS011;39794;55.782;37.452;2022-11-15T05:03:15;10.38;;;1.75;;
53881;SDS011;39794;55.782;37.452;2022-11-15T05:06:35;2.50;;;1.30;;
53881;SDS011;39794;55.782;37.452;2022-11-15T05:09:22;7.25;;;1.88;;
53881;SDS011;39794;55.782;37.452;2022-11-15T05:12:09;6.22;;;1.50;;
53881;SDS011;39794;55.782;37.452;2022-11-15T05:14:56;7.22;;;1.65;;
53881;SDS011;39794;55.782;37.452;2022-11-15T05:17:44;4.18;;;1.33;;
53881;SDS011;39794;55.782;37.452;2022-11-15T05:20:31;8.35;;;1.98;;
53881;SDS011;39794;55.782;37.452;2022-11-15T05:23:19;4.75;;;1.35;;
53881;SDS011;39794;55.782;37.452;2022-11-15T05:26:07;6.90;;;1.42;;
53881;SDS011;39794;55.782;37.452;2022-11-15T05:28:54;7.85;;;1.70;;
53881;SDS011;39794;55.782;37.452;2022-11-15T05:31:42;8.00;;;1.35;;
53881;SDS011;39794;55.782;37.452;2022-11-15T05:34:29;4.90;;;1.48;;
53881;SDS011;39794;55.782;37.452;2022-11-15T05:37:16;8.70;;;2.40;;
53881;SDS011;39794;55.782;37.452;2022-11-15T05:40:05;6.93;;;1.52;;
53881;SDS011;39794;55.782;37.452;2022-11-15T05:42:52;10.23;;;1.75;;
53881;SDS011;39794;55.782;37.452;2022-11-15T05:45:39;4.43;;;1.45;;
53881;SDS011;39794;55.782;37.452;2022-11-15T05:48:26;5.05;;;1.63;;
53881;SDS011;39794;55.782;37.452;2022-11-15T05:51:13;7.25;;;1.40;;
53881;SDS011;39794;55.782;37.452;2022-11-15T05:54:01;6.60;;;1.30;;
53881;SDS011;39794;55.782;37.452;2022-11-15T05:56:50;6.70;;;1.73;;
53881;SDS011;39794;55.782;37.452;2022-11-15T05:59:37;3.40;;;1.20;;
53881;SDS011;39794;55.782;37.452;2022-11-15T06:02:26;8.38;;;1.42;;
53881;SDS011;39794;55.782;37.452;2022-11-15T06:05:14;3.00;;;1.52;;
53881;SDS011;39794;55.782;37.452;2022-11-15T06:08:01;7.43;;;1.90;;
53881;SDS011;39794;55.782;37.452;2022-11-15T06:10:48;7.82;;;1.30;;
53881;SDS011;39794;55.782;37.452;2022-11-15T06:13:36;17.67;;;2.70;;
53881;SDS011;39794;55.782;37.452;2022-11-15T06:16:23;5.07;;;1.30;;
53881;SDS011;39794;55.782;37.452;2022-11-15T06:19:10;9.98;;;1.40;;
53881;SDS011;39794;55.782;37.452;2022-11-15T06:21:57;6.80;;;1.30;;
53881;SDS011;39794;55.782;37.452;2022-11-15T06:24:43;6.00;;;1.52;;
53881;SDS011;39794;55.782;37.452;2022-11-15T06:27:30;6.43;;;1.50;;
53881;SDS011;39794;55.782;37.452;2022-11-15T06:30:19;4.70;;;1.20;;
53881;SDS011;39794;55.782;37.452;2022-11-15T06:33:06;2.90;;;1.33;;
53881;SDS011;39794;55.782;37.452;2022-11-15T06:35:54;11.75;;;1.67;;
53881;SDS011;39794;55.782;37.452;2022-11-15T06:38:41;7.00;;;1.70;;
53881;SDS011;39794;55.782;37.452;2022-11-15T06:41:28;7.28;;;1.40;;
53881;SDS011;39794;55.782;37.452;2022-11-15T06:44:15;2.17;;;1.40;;
53881;SDS011;39794;55.782;37.452;2022-11-15T06:47:04;3.85;;;1.63;;
53881;SDS011;39794;55.782;37.452;2022-11-15T06:49:51;2.75;;;1.45;;
53881;SDS011;39794;55.782;37.452;2022-11-15T06:52:38;2.35;;;1.23;;
53881;SDS011;39794;55.782;37.452;2022-11-15T06:55:24;8.55;;;2.03;;
53881;SDS011;39794;55.782;37.452;2022-11-15T06:58:11;3.80;;;2.10;;
53881;SDS011;39794;55.782;37.452;2022-11-15T07:00:59;6.40;;;1.77;;
53881;SDS011;39794;55.782;37.452;2022-11-15T07:03:48;3.38;;;1.30;;
53881;SDS011;39794;55.782;37.452;2022-11-15T07:06:35;8.00;;;1.52;;
53881;SDS011;39794;55.782;37.452;2022-11-15T07:09:22;6.10;;;1.88;;
53881;SDS011;39794;55.782;37.452;2022-11-15T07:12:08;9.20;;;1.52;;
53881;SDS011;39794;55.782;37.452;2022-11-15T07:14:56;10.32;;;1.33;;
53881;SDS011;39794;55.782;37.452;2022-11-15T07:17:43;10.05;;;1.40;;
53881;SDS011;39794;55.782;37.452;2022-11-15T07:20:31;5.53;;;1.35;;
53881;SDS011;39794;55.782;37.452;2022-11-15T07:23:18;6.32;;;1.30;;
53881;SDS011;39794;55.782;37.452;2022-11-15T07:26:06;6.25;;;1.55;;
53881;SDS011;39794;55.782;37.452;2022-11-15T07:28:53;5.78;;;1.27;;
53881;SDS011;39794;55.782;37.452;2022-11-15T07:31:40;4.80;;;1.40;;
53881;SDS011;39794;55.782;37.452;2022-11-15T07:34:27;18.45;;;2.17;;
53881;SDS011;39794;55.782;37.452;2022-11-15T07:37:16;2.80;;;1.52;;
53881;SDS011;39794;55.782;37.452;2022-11-15T07:40:03;3.58;;;1.33;;
53881;SDS011;39794;55.782;37.452;2022-11-15T07:42:51;4.38;;;1.60;;
53881;SDS011;39794;55.782;37.452;2022-11-15T07:45:41;13.90;;;2.70;;
53881;SDS011;39794;55.782;37.452;2022-11-15T07:48:29;5.13;;;1.55;;
53881;SDS011;39794;55.782;37.452;2022-11-15T07:51:28;4.70;;;1.67;;
53881;SDS011;39794;55.782;37.452;2022-11-15T07:54:17;4.90;;;2.50;;
53881;SDS011;39794;55.782;37.452;2022-11-15T07:57:04;6.45;;;1.77;;
53881;SDS011;39794;55.782;37.452;2022-11-15T07:59:52;6.95;;;1.55;;
53881;SDS011;39794;55.782;37.452;2022-11-15T08:02:39;7.80;;;1.85;;
53881;SDS011;39794;55.782;37.452;2022-11-15T08:05:27;6.10;;;1.73;;
53881;SDS011;39794;55.782;37.452;2022-11-15T08:08:13;5.57;;;1.90;;
53881;SDS011;39794;55.782;37.452;2022-11-15T08:11:02;4.05;;;1.83;;
53881;SDS011;39794;55.782;37.452;2022-11-15T08:13:49;4.20;;;1.40;;
53881;SDS011;39794;55.782;37.452;2022-11-15T08:16:37;2.03;;;1.08;;
53881;SDS011;39794;55.782;37.452;2022-11-15T08:19:24;4.15;;;1.48;;
53881;SDS011;39794;55.782;37.452;2022-11-15T08:22:10;5.45;;;1.42;;
53881;SDS011;39794;55.782;37.452;2022-11-15T08:24:58;5.65;;;2.10;;
53881;SDS011;39794;55.782;37.452;2022-11-15T08:27:46;5.38;;;1.73;;
53881;SDS011;39794;55.782;37.452;2022-11-15T08:30:34;8.32;;;1.70;;
53881;SDS011;39794;55.782;37.452;2022-11-15T08:33:23;4.80;;;2.35;;
53881;SDS011;39794;55.782;37.452;2022-11-15T08:36:11;3.42;;;1.20;;
53881;SDS011;39794;55.782;37.452;2022-11-15T08:39:00;5.18;;;1.20;;
53881;SDS011;39794;55.782;37.452;2022-11-15T08:41:46;5.05;;;1.67;;
53881;SDS011;39794;55.782;37.452;2022-11-15T08:44:35;3.47;;;1.30;;
53881;SDS011;39794;55.782;37.452;2022-11-15T08:47:22;6.35;;;1.30;;
53881;SDS011;39794;55.782;37.452;2022-11-15T08:50:09;5.82;;;1.30;;
53881;SDS011;39794;55.782;37.452;2022-11-15T08:52:56;6.00;;;1.85;;
53881;SDS011;39794;55.782;37.452;2022-11-15T08:55:43;10.18;;;1.88;;
53881;SDS011;39794;55.782;37.452;2022-11-15T08:58:29;4.47;;;1.40;;
53881;SDS011;39794;55.782;37.452;2022-11-15T09:01:19;3.13;;;1.52;;
53881;SDS011;39794;55.782;37.452;2022-11-15T09:04:06;4.32;;;2.13;;
53881;SDS011;39794;55.782;37.452;2022-11-15T09:06:53;1.98;;;1.75;;
53881;SDS011;39794;55.782;37.452;2022-11-15T09:09:40;5.13;;;1.88;;
53881;SDS011;39794;55.782;37.452;2022-11-15T09:12:29;4.57;;;1.92;;
53881;SDS011;39794;55.782;37.452;2022-11-15T09:15:16;5.78;;;2.70;;
53881;SDS011;39794;55.782;37.452;2022-11-15T09:18:06;7.45;;;2.10;;
53881;SDS011;39794;55.782;37.452;2022-11-15T09:20:54;4.70;;;1.92;;
53881;SDS011;39794;55.782;37.452;2022-11-15T09:23:43;7.90;;;2.42;;
53881;SDS011;39794;55.782;37.452;2022-11-15T09:26:30;10.82;;;2.15;;
53881;SDS011;39794;55.782;37.452;2022-11-15T09:29:16;7.07;;;1.95;;
53881;SDS011;39794;55.782;37.452;2022-11-15T09:32:04;9.18;;;2.65;;
53881;SDS011;39794;55.782;37.452;2022-11-15T09:34:52;8.90;;;2.67;;
53881;SDS011;39794;55.782;37.452;2022-11-15T09:37:39;9.23;;;2.38;;
53881;SDS011;39794;55.782;37.452;2022-11-15T09:40:26;9.18;;;2.55;;
53881;SDS011;39794;55.782;37.452;2022-11-15T09:43:23;13.90;;;2.53;;
53881;SDS011;39794;55.782;37.452;2022-11-15T09:46:15;5.57;;;2.42;;
53881;SDS011;39794;55.782;37.452;2022-11-15T09:49:11;13.07;;;3.17;;
53881;SDS011;39794;55.782;37.452;2022-11-15T09:52:01;9.25;;;2.45;;
53881;SDS011;39794;55.782;37.452;2022-11-15T09:54:31;6.85;;;2.30;;
53881;SDS011;39794;55.782;37.452;2022-11-15T09:57:21;7.25;;;2.38;;
53881;SDS011;39794;55.782;37.452;2022-11-15T09:59:56;7.53;;;2.53;;
53881;SDS011;39794;55.782;37.452;2022-11-15T10:02:52;3.90;;;2.50;;
53881;SDS011;39794;55.782;37.452;2022-11-15T10:05:28;9.25;;;2.67;;
53881;SDS011;39794;55.782;37.452;2022-11-15T10:08:00;8.07;;;2.88;;
53881;SDS011;39794;55.782;37.452;2022-11-15T10:10:32;10.88;;;2.15;;
53881;SDS011;39794;55.782;37.452;2022-11-15T10:13:04;9.63;;;2.45;;
53881;SDS011;39794;55.782;37.452;2022-11-15T10:15:37;8.23;;;2.45;;
53881;SDS011;39794;55.782;37.452;2022-11-15T10:18:07;8.27;;;2.47;;
53881;SDS011;39794;55.782;37.452;2022-11-15T10:20:42;12.10;;;2.88;;
53881;SDS011;39794;55.782;37.452;2022-11-15T10:23:17;8.63;;;2.58;;
53881;SDS011;39794;55.782;37.452;2022-11-15T10:25:47;13.68;;;2.75;;
53881;SDS011;39794;55.782;37.452;2022-11-15T10:28:21;15.23;;;2.92;;
53881;SDS011;39794;55.782;37.452;2022-11-15T10:30:51;7.78;;;2.15;;
53881;SDS011;39794;55.782;37.452;2022-11-15T10:33:31;3.83;;;2.13;;
53881;SDS011;39794;55.782;37.452;2022-11-15T10:36:15;4.32;;;2.50;;
53881;SDS011;39794;55.782;37.452;2022-11-15T10:38:52;4.65;;;2.05;;
53881;SDS011;39794;55.782;37.452;2022-11-15T10:44:19;8.88;;;2.60;;
53881;SDS011;39794;55.782;37.452;2022-11-15T10:47:03;9.13;;;2.45;;
53881;SDS011;39794;55.782;37.452;2022-11-15T10:49:56;7.25;;;2.15;;
53881;SDS011;39794;55.782;37.452;2022-11-15T10:52:29;10.27;;;2.83;;
53881;SDS011;39794;55.782;37.452;2022-11-15T10:55:01;10.68;;;2.90;;
53881;SDS011;39794;55.782;37.452;2022-11-15T10:57:32;8.00;;;2.40;;
53881;SDS011;39794;55.782;37.452;2022-11-15T11:00:05;11.70;;;3.53;;
53881;SDS011;39794;55.782;37.452;2022-11-15T11:02:35;9.90;;;2.83;;
53881;SDS011;39794;55.782;37.452;2022-11-15T11:05:06;7.35;;;2.28;;
53881;SDS011;39794;55.782;37.452;2022-11-15T11:07:55;3.90;;;2.10;;
53881;SDS011;39794;55.782;37.452;2022-11-15T11:10:26;11.27;;;2.33;;
53881;SDS011;39794;55.782;37.452;2022-11-15T11:13:20;6.88;;;2.58;;
53881;SDS011;39794;55.782;37.452;2022-11-15T11:15:52;6.72;;;2.40;;
53881;SDS011;39794;55.782;37.452;2022-11-15T11:18:27;4.25;;;2.03;;
53881;SDS011;39794;55.782;37.452;2022-11-15T11:21:02;8.88;;;2.63;;
53881;SDS011;39794;55.782;37.452;2022-11-15T11:23:38;5.38;;;1.90;;
53881;SDS011;39794;55.782;37.452;2022-11-15T11:26:24;11.77;;;2.53;;
53881;SDS011;39794;55.782;37.452;2022-11-15T11:29:02;5.85;;;2.13;;
53881;SDS011;39794;55.782;37.452;2022-11-15T11:31:42;6.40;;;2.33;;
53881;SDS011;39794;55.782;37.452;2022-11-15T11:34:19;10.10;;;2.60;;
53881;SDS011;39794;55.782;37.452;2022-11-15T11:36:59;7.65;;;2.25;;
53881;SDS011;39794;55.782;37.452;2022-11-15T11:39:32;6.43;;;1.98;;
53881;SDS011;39794;55.782;37.452;2022-11-15T11:42:16;9.38;;;2.45;;
53881;SDS011;39794;55.782;37.452;2022-11-15T11:44:50;12.95;;;3.05;;
53881;SDS011;39794;55.782;37.452;2022-11-15T11:47:24;8.63;;;2.47;;
53881;SDS011;39794;55.782;37.452;2022-11-15T11:50:00;16.92;;;3.00;;
53881;SDS011;39794;55.782;37.452;2022-11-15T11:52:34;10.57;;;2.78;;
53881;SDS011;39794;55.782;37.452;2022-11-15T11:55:11;10.73;;;2.78;;
53881;SDS011;39794;55.782;37.452;2022-11-15T11:57:44;11.27;;;2.97;;
53881;SDS011;39794;55.782;37.452;2022-11-15T12:00:17;9.00;;;2.85;;
53881;SDS011;39794;55.782;37.452;2022-11-15T12:02:48;4.00;;;2.05;;
53881;SDS011;39794;55.782;37.452;2022-11-15T12:05:35;6.45;;;2.55;;
53881;SDS011;39794;55.782;37.452;2022-11-15T12:08:13;10.75;;;3.33;;
53881;SDS011;39794;55.782;37.452;2022-11-15T12:10:48;8.00;;;3.13;;
53881;SDS011;39794;55.782;37.452;2022-11-15T12:13:22;7.13;;;2.75;;
53881;SDS011;39794;55.782;37.452;2022-11-15T12:15:53;9.55;;;3.03;;
53881;SDS011;39794;55.782;37.452;2022-11-15T12:18:25;10.70;;;3.63;;
53881;SDS011;39794;55.782;37.452;2022-11-15T12:20:54;9.18;;;3.25;;
53881;SDS011;39794;55.782;37.452;2022-11-15T12:23:25;7.13;;;2.53;;
53881;SDS011;39794;55.782;37.452;2022-11-15T12:25:57;6.57;;;2.60;;
53881;SDS011;39794;55.782;37.452;2022-11-15T12:28:34;9.77;;;2.92;;
53881;SDS011;39794;55.782;37.452;2022-11-15T12:31:26;9.43;;;2.83;;
53881;SDS011;39794;55.782;37.452;2022-11-15T12:33:58;10.07;;;3.08;;
53881;SDS011;39794;55.782;37.452;2022-11-15T12:36:35;11.80;;;3.50;;
53881;SDS011;39794;55.782;37.452;2022-11-15T12:39:05;8.15;;;2.80;;
53881;SDS011;39794;55.782;37.452;2022-11-15T12:41:35;8.20;;;3.08;;
53881;SDS011;39794;55.782;37.452;2022-11-15T12:44:10;10.13;;;2.80;;
53881;SDS011;39794;55.782;37.452;2022-11-15T12:49:43;8.15;;;2.90;;
53881;SDS011;39794;55.782;37.452;2022-11-15T12:52:13;9.70;;;3.33;;
53881;SDS011;39794;55.782;37.452;2022-11-15T12:54:52;7.55;;;2.50;;
53881;SDS011;39794;55.782;37.452;2022-11-15T12:57:31;8.10;;;2.90;;
53881;SDS011;39794;55.782;37.452;2022-11-15T13:03:26;11.93;;;3.17;;
53881;SDS011;39794;55.782;37.452;2022-11-15T13:06:05;7.90;;;2.83;;
53881;SDS011;39794;55.782;37.452;2022-11-15T13:08:36;8.65;;;2.85;;
53881;SDS011;39794;55.782;37.452;2022-11-15T13:22:50;12.70;;;3.30;;
53881;SDS011;39794;55.782;37.452;2022-11-15T13:25:21;7.47;;;3.28;;
53881;SDS011;39794;55.782;37.452;2022-11-15T13:27:55;8.93;;;3.08;;
53881;SDS011;39794;55.782;37.452;2022-11-15T13:30:33;6.35;;;3.40;;
53881;SDS011;39794;55.782;37.452;2022-11-15T13:33:17;11.02;;;3.88;;
53881;SDS011;39794;55.782;37.452;2022-11-15T13:35:49;7.65;;;2.97;;
53881;SDS011;39794;55.782;37.452;2022-11-15T13:38:19;8.98;;;3.33;;
53881;SDS011;39794;55.782;37.452;2022-11-15T13:40:54;6.07;;;3.63;;
53881;SDS011;39794;55.782;37.452;2022-11-15T13:43:26;6.90;;;2.83;;
53881;SDS011;39794;55.782;37.452;2022-11-15T13:46:07;8.52;;;3.70;;
53881;SDS011;39794;55.782;37.452;2022-11-15T13:48:38;12.98;;;5.25;;
53881;SDS011;39794;55.782;37.452;2022-11-15T13:51:10;14.55;;;6.07;;
53881;SDS011;39794;55.782;37.452;2022-11-15T13:53:46;12.70;;;4.78;;
53881;SDS011;39794;55.782;37.452;2022-11-15T13:56:17;10.32;;;4.45;;
53881;SDS011;39794;55.782;37.452;2022-11-15T13:58:46;12.18;;;4.43;;
53881;SDS011;39794;55.782;37.452;2022-11-15T14:01:16;12.07;;;3.97;;
53881;SDS011;39794;55.782;37.452;2022-11-15T14:03:47;18.17;;;4.32;;
53881;SDS011;39794;55.782;37.452;2022-11-15T14:06:20;10.70;;;5.15;;
53881;SDS011;39794;55.782;37.452;2022-11-15T14:09:00;12.57;;;4.88;;
53881;SDS011;39794;55.782;37.452;2022-11-15T14:11:53;8.20;;;4.18;;
53881;SDS011;39794;55.782;37.452;2022-11-15T14:14:23;9.93;;;3.80;;
53881;SDS011;39794;55.782;37.452;2022-11-15T14:16:53;8.63;;;3.55;;
53881;SDS011;39794;55.782;37.452;2022-11-15T14:19:38;8.27;;;3.65;;
53881;SDS011;39794;55.782;37.452;2022-11-15T14:22:12;8.75;;;3.50;;
53881;SDS011;39794;55.782;37.452;2022-11-15T14:24:43;12.77;;;4.28;;
53881;SDS011;39794;55.782;37.452;2022-11-15T14:27:20;9.95;;;3.40;;
53881;SDS011;39794;55.782;37.452;2022-11-15T14:29:52;12.50;;;3.70;;
53881;SDS011;39794;55.782;37.452;2022-11-15T14:32:21;10.98;;;3.42;;
53881;SDS011;39794;55.782;37.452;2022-11-15T14:34:54;12.10;;;3.65;;
53881;SDS011;39794;55.782;37.452;2022-11-15T14:37:24;8.20;;;3.42;;
53881;SDS011;39794;55.782;37.452;2022-11-15T14:39:54;9.98;;;3.80;;
53881;SDS011;39794;55.782;37.452;2022-11-15T14:42:23;9.90;;;3.80;;
53881;SDS011;39794;55.782;37.452;2022-11-15T14:44:52;11.38;;;4.30;;
53881;SDS011;39794;55.782;37.452;2022-11-15T14:47:20;7.38;;;3.85;;
53881;SDS011;39794;55.782;37.452;2022-11-15T14:49:49;9.55;;;3.85;;
53881;SDS011;39794;55.782;37.452;2022-11-15T14:52:22;10.68;;;3.90;;
53881;SDS011;39794;55.782;37.452;2022-11-15T14:54:59;7.63;;;4.53;;
53881;SDS011;39794;55.782;37.452;2022-11-15T14:57:29;10.85;;;3.78;;
53881;SDS011;39794;55.782;37.452;2022-11-15T14:59:58;11.57;;;3.90;;
53881;SDS011;39794;55.782;37.452;2022-11-15T15:02:38;8.85;;;4.35;;
53881;SDS011;39794;55.782;37.452;2022-11-15T15:05:12;17.40;;;5.80;;
53881;SDS011;39794;55.782;37.452;2022-11-15T15:07:44;15.70;;;7.75;;
53881;SDS011;39794;55.782;37.452;2022-11-15T15:10:13;20.08;;;8.20;;
53881;SDS011;39794;55.782;37.452;2022-11-15T15:13:04;14.65;;;7.13;;
53881;SDS011;39794;55.782;37.452;2022-11-15T15:15:33;14.82;;;6.70;;
53881;SDS011;39794;55.782;37.452;2022-11-15T15:18:04;12.65;;;6.00;;
53881;SDS011;39794;55.782;37.452;2022-11-15T15:20:35;15.15;;;5.55;;
53881;SDS011;39794;55.782;37.452;2022-11-15T15:23:07;13.70;;;4.57;;
53881;SDS011;39794;55.782;37.452;2022-11-15T15:25:38;10.55;;;4.45;;
53881;SDS011;39794;55.782;37.452;2022-11-15T15:28:08;11.55;;;4.70;;
53881;SDS011;39794;55.782;37.452;2022-11-15T15:30:37;12.27;;;4.80;;
53881;SDS011;39794;55.782;37.452;2022-11-15T15:33:06;11.32;;;4.35;;
53881;SDS011;39794;55.782;37.452;2022-11-15T15:35:35;10.50;;;5.00;;
53881;SDS011;39794;55.782;37.452;2022-11-15T15:38:03;11.13;;;4.43;;
53881;SDS011;39794;55.782;37.452;2022-11-15T15:40:33;10.73;;;4.20;;
53881;SDS011;39794;55.782;37.452;2022-11-15T15:43:01;9.13;;;3.72;;
53881;SDS011;39794;55.782;37.452;2022-11-15T15:45:30;11.32;;;4.03;;
53881;SDS011;39794;55.782;37.452;2022-11-15T15:47:59;10.25;;;4.03;;
53881;SDS011;39794;55.782;37.452;2022-11-15T15:50:27;9.98;;;4.80;;
53881;SDS011;39794;55.782;37.452;2022-11-15T15:52:58;9.35;;;4.20;;
53881;SDS011;39794;55.782;37.452;2022-11-15T15:55:27;8.80;;;4.30;;
53881;SDS011;39794;55.782;37.452;2022-11-15T15:57:57;12.13;;;5.13;;
53881;SDS011;39794;55.782;37.452;2022-11-15T16:00:26;10.45;;;5.25;;
53881;SDS011;39794;55.782;37.452;2022-11-15T16:02:54;9.88;;;5.30;;
53881;SDS011;39794;55.782;37.452;2022-11-15T16:05:23;14.07;;;5.40;;
53881;SDS011;39794;55.782;37.452;2022-11-15T16:07:51;12.57;;;6.03;;
53881;SDS011;39794;55.782;37.452;2022-11-15T16:10:22;8.48;;;5.53;;
53881;SDS011;39794;55.782;37.452;2022-11-15T16:12:51;13.52;;;6.22;;
53881;SDS011;39794;55.782;37.452;2022-11-15T16:15:22;13.82;;;7.03;;
53881;SDS011;39794;55.782;37.452;2022-11-15T16:17:53;16.00;;;6.85;;
53881;SDS011;39794;55.782;37.452;2022-11-15T16:20:26;14.88;;;6.85;;
53881;SDS011;39794;55.782;37.452;2022-11-15T16:22:58;17.05;;;7.32;;
53881;SDS011;39794;55.782;37.452;2022-11-15T16:25:37;11.43;;;7.32;;
53881;SDS011;39794;55.782;37.452;2022-11-15T16:28:11;12.15;;;6.93;;
53881;SDS011;39794;55.782;37.452;2022-11-15T16:30:45;12.75;;;5.75;;